createdAt,value
2023-03-26T00:02:12.318Z,8.63
2023-03-26T00:04:42.194Z,8.62
2023-03-26T00:07:12.168Z,8.64
2023-03-26T00:09:40.550Z,8.67
2023-03-26T00:12:09.017Z,8.64
2023-03-26T00:14:40.452Z,8.57
2023-03-26T00:17:09.546Z,8.62
2023-03-26T00:19:39.775Z,8.56
2023-03-26T00:22:10.664Z,8.53
2023-03-26T00:24:40.541Z,8.54
2023-03-26T00:27:08.968Z,8.57
2023-03-26T00:29:39.704Z,8.60
2023-03-26T00:32:08.156Z,8.60
2023-03-26T00:34:36.638Z,8.67
2023-03-26T00:37:05.155Z,8.68
2023-03-26T00:39:36.878Z,8.63
2023-03-26T00:42:07.682Z,8.67
2023-03-26T00:44:36.390Z,8.78
2023-03-26T00:47:07.375Z,8.86
2023-03-26T00:49:36.348Z,8.81
2023-03-26T00:52:08.092Z,8.84
2023-03-26T00:54:37.252Z,8.92
2023-03-26T00:57:09.906Z,8.89
2023-03-26T00:59:41.901Z,8.87
2023-03-26T01:02:16.699Z,8.86
2023-03-26T01:04:47.587Z,8.81
2023-03-26T01:07:21.301Z,8.76
2023-03-26T01:09:52.773Z,8.64
2023-03-26T01:12:25.526Z,8.60
2023-03-26T01:15:00.133Z,8.48
2023-03-26T01:17:34.010Z,8.45
2023-03-26T01:20:14.447Z,8.39
2023-03-26T01:22:47.784Z,8.34
2023-03-26T01:25:22.775Z,8.41
2023-03-26T01:27:53.618Z,8.38
2023-03-26T01:30:30.601Z,8.36
2023-03-26T01:33:06.657Z,8.37
2023-03-26T01:35:43.265Z,8.34
2023-03-26T01:38:24.536Z,8.36
2023-03-26T01:41:02.797Z,8.30
2023-03-26T01:43:37.180Z,8.23
2023-03-26T01:46:10.769Z,8.26
2023-03-26T01:48:42.009Z,8.22
2023-03-26T01:51:12.469Z,8.20
2023-03-26T01:53:45.592Z,8.16
2023-03-26T01:56:22.831Z,8.19
2023-03-26T01:59:06.874Z,8.22
2023-03-26T02:01:44.301Z,8.23
2023-03-26T02:04:20.564Z,8.26
2023-03-26T02:06:58.219Z,8.28
2023-03-26T02:09:31.698Z,8.25
2023-03-26T02:12:05.064Z,8.28
2023-03-26T02:14:35.910Z,8.24
2023-03-26T02:17:05.530Z,8.30
2023-03-26T02:19:34.032Z,8.25
2023-03-26T02:22:02.798Z,8.28
2023-03-26T02:24:33.758Z,8.22
2023-03-26T02:27:07.243Z,8.23
2023-03-26T02:29:37.384Z,8.20
2023-03-26T02:32:07.293Z,8.27
2023-03-26T02:34:37.318Z,8.29
2023-03-26T02:37:05.780Z,8.29
2023-03-26T02:39:34.877Z,8.25
2023-03-26T02:42:12.367Z,8.24
2023-03-26T02:44:47.760Z,8.35
2023-03-26T02:47:19.688Z,8.34
2023-03-26T02:49:54.058Z,8.30
2023-03-26T02:52:29.241Z,8.29
2023-03-26T02:54:59.597Z,8.31
2023-03-26T02:57:30.985Z,8.25
2023-03-26T02:59:59.381Z,8.23
2023-03-26T03:02:40.353Z,8.27
2023-03-26T03:05:28.426Z,8.25
2023-03-26T03:08:09.669Z,8.27
2023-03-26T03:10:51.810Z,8.23
2023-03-26T03:13:33.488Z,8.24
2023-03-26T03:16:04.408Z,8.26
2023-03-26T03:18:33.063Z,8.19
2023-03-26T03:21:02.423Z,8.15
2023-03-26T03:23:30.984Z,8.18
2023-03-26T03:26:15.022Z,8.15
2023-03-26T03:28:48.688Z,8.24
2023-03-26T03:31:18.468Z,8.19
2023-03-26T03:33:47.224Z,8.23
2023-03-26T03:36:21.763Z,8.27
2023-03-26T03:39:01.988Z,8.22
2023-03-26T03:41:30.808Z,8.21
2023-03-26T03:44:03.107Z,8.15
2023-03-26T03:46:33.695Z,8.18
2023-03-26T03:49:02.592Z,8.22
2023-03-26T03:51:37.658Z,8.30
2023-03-26T03:54:13.837Z,8.23
2023-03-26T03:57:03.154Z,8.18
2023-03-26T03:59:36.552Z,8.14
2023-03-26T04:02:08.060Z,8.16
2023-03-26T04:04:54.040Z,8.13
2023-03-26T04:07:23.497Z,8.16
2023-03-26T04:10:18.687Z,8.15
2023-03-26T04:13:22.769Z,8.16
2023-03-26T04:16:12.557Z,8.21
2023-03-26T04:18:41.235Z,8.20
2023-03-26T04:21:16.505Z,8.16
2023-03-26T04:23:46.771Z,8.16
2023-03-26T04:26:41.262Z,8.16
2023-03-26T04:29:17.679Z,8.17
2023-03-26T04:31:50.000Z,8.13
2023-03-26T04:34:23.527Z,8.16
2023-03-26T04:37:05.416Z,8.17
2023-03-26T04:39:39.648Z,8.12
2023-03-26T04:42:33.084Z,8.13
2023-03-26T04:45:10.681Z,8.13
2023-03-26T04:47:43.022Z,8.17
2023-03-26T04:50:13.320Z,8.08
2023-03-26T04:52:45.093Z,8.10
2023-03-26T04:55:38.601Z,8.03
2023-03-26T04:58:16.629Z,8.00
2023-03-26T05:00:55.392Z,8.03
2023-03-26T05:03:30.672Z,7.97
2023-03-26T05:06:03.774Z,7.95
2023-03-26T05:08:32.641Z,7.98
2023-03-26T05:11:01.152Z,7.99
2023-03-26T05:13:35.394Z,7.92
2023-03-26T05:16:10.185Z,7.96
2023-03-26T05:18:59.090Z,7.98
2023-03-26T05:21:32.681Z,7.99
2023-03-26T05:24:01.708Z,7.85
2023-03-26T05:26:31.169Z,7.89
2023-03-26T05:28:59.806Z,7.85
2023-03-26T05:31:34.210Z,7.88
2023-03-26T05:34:06.221Z,7.88
2023-03-26T05:36:35.057Z,7.90
2023-03-26T05:39:17.860Z,7.90
2023-03-26T05:42:09.869Z,7.90
2023-03-26T05:44:53.534Z,7.96
2023-03-26T05:47:28.582Z,8.08
2023-03-26T05:49:59.886Z,8.16
2023-03-26T05:52:28.724Z,8.31
2023-03-26T05:55:29.107Z,8.53
2023-03-26T05:58:20.946Z,8.70
2023-03-26T06:01:09.971Z,8.84
2023-03-26T06:04:01.413Z,8.90
2023-03-26T06:06:35.322Z,9.85
2023-03-26T06:09:04.225Z,8.96
2023-03-26T06:11:33.567Z,9.09
2023-03-26T06:14:04.191Z,9.17
2023-03-26T06:16:33.595Z,9.07
2023-03-26T06:19:31.322Z,9.10
2023-03-26T06:22:09.382Z,9.25
2023-03-26T06:24:56.952Z,9.30
2023-03-26T06:27:46.301Z,9.42
2023-03-26T06:30:33.422Z,9.49
2023-03-26T06:33:08.282Z,9.53
2023-03-26T06:35:45.072Z,9.46
2023-03-26T06:38:16.785Z,9.44
2023-03-26T06:40:45.589Z,9.39
2023-03-26T06:43:41.408Z,9.46
2023-03-26T06:46:23.111Z,9.54
2023-03-26T06:48:57.528Z,9.78
2023-03-26T06:51:49.720Z,10.10
2023-03-26T06:54:39.147Z,10.29
2023-03-26T06:57:26.468Z,10.36
2023-03-26T07:00:27.224Z,10.24
2023-03-26T07:03:16.790Z,10.22
2023-03-26T07:06:04.793Z,10.04
2023-03-26T07:08:52.019Z,10.00
2023-03-26T07:11:41.456Z,10.08
2023-03-26T07:14:32.517Z,9.98
2023-03-26T07:17:14.152Z,10.04
2023-03-26T07:19:52.238Z,10.08
2023-03-26T07:22:25.822Z,9.89
2023-03-26T07:25:16.489Z,9.77
2023-03-26T07:28:12.941Z,9.92
2023-03-26T07:31:12.491Z,9.94
2023-03-26T07:33:55.640Z,10.10
2023-03-26T07:36:37.210Z,10.14
2023-03-26T07:39:38.965Z,10.16
2023-03-26T07:42:27.685Z,10.26
2023-03-26T07:45:41.136Z,10.36
2023-03-26T07:48:27.008Z,10.43
2023-03-26T07:51:02.900Z,10.48
2023-03-26T07:53:50.982Z,10.55
2023-03-26T07:56:43.049Z,10.49
2023-03-26T07:59:36.535Z,10.47
2023-03-26T08:02:51.821Z,10.12
2023-03-26T08:06:10.588Z,10.21
2023-03-26T08:09:04.382Z,10.20
2023-03-26T08:11:58.642Z,10.27
2023-03-26T08:14:40.815Z,10.10
2023-03-26T08:17:13.002Z,10.36
2023-03-26T08:19:57.532Z,10.48
2023-03-26T08:22:30.895Z,10.74
2023-03-26T08:25:19.696Z,10.84
2023-03-26T08:28:00.723Z,10.72
2023-03-26T08:30:30.604Z,10.66
2023-03-26T08:33:01.487Z,10.62
2023-03-26T08:35:33.386Z,10.59
2023-03-26T08:38:03.450Z,10.81
2023-03-26T08:41:06.862Z,10.94
2023-03-26T08:44:07.642Z,11.12
2023-03-26T08:47:03.926Z,11.29
2023-03-26T08:49:51.039Z,11.33
2023-03-26T08:52:47.769Z,11.07
2023-03-26T08:55:37.307Z,11.26
2023-03-26T08:58:38.449Z,11.41
2023-03-26T09:02:01.527Z,11.40
2023-03-26T09:05:20.638Z,11.37
2023-03-26T09:08:17.098Z,11.45
2023-03-26T09:10:53.549Z,11.62
2023-03-26T09:14:06.544Z,11.80
2023-03-26T09:17:17.250Z,11.91
2023-03-26T09:20:33.440Z,11.88
2023-03-26T09:23:28.782Z,12.12
2023-03-26T09:26:35.968Z,12.62
2023-03-26T09:29:41.699Z,13.21
2023-03-26T09:32:41.123Z,13.56
2023-03-26T09:35:19.313Z,13.58
2023-03-26T09:38:02.952Z,13.92
2023-03-26T09:40:46.677Z,15.01
2023-03-26T09:43:37.426Z,15.29
2023-03-26T09:46:21.444Z,15.88
2023-03-26T09:49:06.088Z,17.56
2023-03-26T09:52:00.485Z,18.46
2023-03-26T09:54:50.491Z,17.67
2023-03-26T09:57:36.654Z,17.20
2023-03-26T10:00:29.279Z,16.97
2023-03-26T10:03:20.551Z,16.90
2023-03-26T10:06:01.448Z,16.39
2023-03-26T10:08:47.614Z,16.45
2023-03-26T10:11:25.591Z,16.79
2023-03-26T10:14:05.539Z,16.93
2023-03-26T10:16:43.845Z,17.13
2023-03-26T10:19:28.643Z,17.62
2023-03-26T10:22:06.421Z,17.52
2023-03-26T10:24:47.255Z,17.40
2023-03-26T10:27:30.465Z,17.82
2023-03-26T10:30:40.221Z,18.00
2023-03-26T10:33:24.592Z,17.52
2023-03-26T10:36:04.197Z,16.47
2023-03-26T10:38:49.260Z,15.74
2023-03-26T10:41:23.604Z,15.34
2023-03-26T10:44:21.468Z,15.07
2023-03-26T10:47:16.854Z,14.40
2023-03-26T10:50:28.033Z,14.23
2023-03-26T10:53:01.860Z,14.24
2023-03-26T10:55:37.143Z,14.15
2023-03-26T10:58:14.905Z,14.10
2023-03-26T11:00:52.762Z,14.03
2023-03-26T11:03:51.336Z,13.84
2023-03-26T11:06:38.434Z,13.50
2023-03-26T11:09:23.985Z,13.26
2023-03-26T11:12:03.106Z,13.18
2023-03-26T11:14:59.851Z,13.09
2023-03-26T11:17:41.592Z,13.06
2023-03-26T11:20:18.462Z,13.06
2023-03-26T11:23:03.230Z,12.86
2023-03-26T11:25:53.324Z,12.77
2023-03-26T11:28:37.443Z,12.81
2023-03-26T11:31:15.125Z,12.94
2023-03-26T11:33:49.947Z,13.43
2023-03-26T11:36:23.864Z,13.83
2023-03-26T11:38:58.860Z,14.24
2023-03-26T11:41:32.367Z,14.54
2023-03-26T11:44:28.304Z,14.53
2023-03-26T11:47:01.048Z,14.47
2023-03-26T11:49:31.089Z,14.51
2023-03-26T11:52:01.432Z,14.62
2023-03-26T11:54:32.932Z,14.68
2023-03-26T11:57:08.206Z,15.26
2023-03-26T11:59:53.255Z,15.96
2023-03-26T12:02:28.537Z,16.44
2023-03-26T12:05:13.643Z,17.08
2023-03-26T12:07:48.332Z,17.20
2023-03-26T12:10:28.494Z,17.07
2023-03-26T12:13:00.688Z,16.20
2023-03-26T12:15:30.984Z,15.61
2023-03-26T12:18:19.101Z,15.20
2023-03-26T12:20:47.782Z,15.01
2023-03-26T12:23:53.444Z,14.90
2023-03-26T12:26:33.495Z,14.68
2023-03-26T12:29:09.764Z,14.31
2023-03-26T12:31:57.095Z,14.09
2023-03-26T12:34:34.460Z,14.12
2023-03-26T12:37:04.917Z,14.19
2023-03-26T12:40:09.078Z,14.06
2023-03-26T12:44:49.730Z,14.08
2023-03-26T12:45:24.093Z,13.91
2023-03-26T12:48:01.669Z,13.88
2023-03-26T12:50:45.930Z,13.99
2023-03-26T12:53:39.215Z,14.01
2023-03-26T12:56:21.385Z,13.91
2023-03-26T12:59:18.974Z,13.52
2023-03-26T13:01:55.768Z,13.34
2023-03-26T13:04:38.042Z,13.16
2023-03-26T13:07:18.397Z,13.18
2023-03-26T13:10:07.284Z,13.22
2023-03-26T13:12:44.591Z,13.21
2023-03-26T13:15:28.186Z,13.25
2023-03-26T13:18:08.087Z,13.28
2023-03-26T13:20:51.000Z,13.37
2023-03-26T13:23:34.838Z,13.49
2023-03-26T13:26:12.991Z,13.65
2023-03-26T13:28:52.048Z,13.58
2023-03-26T13:31:28.091Z,13.66
2023-03-26T13:34:05.476Z,13.89
2023-03-26T13:36:46.193Z,14.01
2023-03-26T13:39:27.903Z,14.28
2023-03-26T13:42:16.101Z,14.32
2023-03-26T13:45:04.979Z,14.24
2023-03-26T13:47:41.762Z,14.23
2023-03-26T13:50:20.598Z,14.04
2023-03-26T13:52:55.478Z,13.93
2023-03-26T13:55:30.905Z,13.95
2023-03-26T13:58:05.545Z,13.64
2023-03-26T14:00:53.393Z,13.72
2023-03-26T14:03:33.035Z,13.74
2023-03-26T14:06:06.870Z,13.80
2023-03-26T14:08:40.114Z,13.76
2023-03-26T14:11:13.235Z,13.67
2023-03-26T14:13:51.162Z,13.68
2023-03-26T14:16:24.060Z,13.38
2023-03-26T14:19:02.928Z,13.21
2023-03-26T14:21:50.978Z,13.15
2023-03-26T14:24:39.546Z,13.01
2023-03-26T14:27:27.961Z,12.83
2023-03-26T14:30:17.263Z,12.65
2023-03-26T14:33:02.874Z,12.58
2023-03-26T14:35:39.024Z,12.42
2023-03-26T14:38:34.405Z,12.36
2023-03-26T14:41:22.593Z,12.31
2023-03-26T14:44:17.261Z,12.27
2023-03-26T14:46:58.509Z,12.28
2023-03-26T14:49:43.112Z,12.28
2023-03-26T14:52:19.241Z,12.28
2023-03-26T14:54:52.833Z,12.32
2023-03-26T14:58:01.419Z,12.31
2023-03-26T15:01:04.385Z,12.19
2023-03-26T15:04:06.987Z,11.88
2023-03-26T15:07:12.308Z,11.60
2023-03-26T15:10:30.491Z,11.41
2023-03-26T15:13:22.642Z,11.38
2023-03-26T15:16:14.613Z,11.20
2023-03-26T15:19:18.278Z,11.21
2023-03-26T15:22:13.755Z,11.01
2023-03-26T15:25:21.520Z,10.89
2023-03-26T15:28:16.757Z,10.65
2023-03-26T15:31:36.218Z,10.59
2023-03-26T15:34:55.345Z,10.40
2023-03-26T15:37:56.765Z,10.42
2023-03-26T15:40:37.897Z,10.29
2023-03-26T15:43:13.101Z,10.21
2023-03-26T15:45:46.961Z,10.24
2023-03-26T15:48:38.995Z,10.34
2023-03-26T15:51:46.467Z,10.36
2023-03-26T15:54:24.632Z,10.33
2023-03-26T15:57:18.025Z,10.36
2023-03-26T16:00:01.501Z,10.36
2023-03-26T16:02:39.979Z,10.38
2023-03-26T16:05:32.519Z,10.42
2023-03-26T16:08:14.349Z,10.46
2023-03-26T16:10:51.029Z,10.52
2023-03-26T16:13:31.742Z,10.57
2023-03-26T16:16:24.351Z,10.57
2023-03-26T16:18:59.984Z,10.67
2023-03-26T16:21:40.932Z,10.56
2023-03-26T16:24:32.739Z,10.62
2023-03-26T16:27:24.344Z,10.62
2023-03-26T16:30:20.230Z,10.56
2023-03-26T16:32:54.727Z,10.49
2023-03-26T16:36:08.219Z,10.49
2023-03-26T16:38:55.279Z,10.49
2023-03-26T16:41:27.875Z,10.46
2023-03-26T16:44:13.204Z,10.47
2023-03-26T16:46:57.649Z,10.39
2023-03-26T16:49:39.748Z,10.39
2023-03-26T16:52:28.220Z,10.34
2023-03-26T16:55:07.358Z,10.35
2023-03-26T16:57:42.976Z,10.36
2023-03-26T17:00:31.420Z,10.32
2023-03-26T17:03:18.353Z,10.38
2023-03-26T17:06:05.469Z,10.31
2023-03-26T17:08:43.734Z,10.23
2023-03-26T17:11:24.658Z,10.12
2023-03-26T17:14:05.549Z,10.14
2023-03-26T17:16:40.427Z,10.13
2023-03-26T17:19:25.014Z,10.12
2023-03-26T17:22:00.395Z,10.12
2023-03-26T17:24:41.312Z,10.05
2023-03-26T17:27:37.965Z,10.04
2023-03-26T17:30:45.632Z,9.98
2023-03-26T17:33:23.312Z,9.90
2023-03-26T17:36:31.398Z,9.98
2023-03-26T17:39:39.302Z,9.92
2023-03-26T17:42:20.420Z,9.85
2023-03-26T17:44:51.880Z,9.71
2023-03-26T17:47:37.598Z,9.75
2023-03-26T17:50:15.047Z,9.67
2023-03-26T17:52:55.992Z,9.71
2023-03-26T17:55:30.193Z,9.71
2023-03-26T17:58:00.888Z,9.67
2023-03-26T18:00:33.168Z,9.60
2023-03-26T18:03:06.003Z,9.59
2023-03-26T18:05:36.115Z,9.53
2023-03-26T18:08:21.211Z,9.55
2023-03-26T18:11:23.319Z,9.54
2023-03-26T18:14:13.547Z,9.53
2023-03-26T18:16:45.648Z,9.56
2023-03-26T18:19:19.629Z,9.57
2023-03-26T18:21:51.416Z,9.54
2023-03-26T18:24:27.589Z,9.45
2023-03-26T18:26:59.713Z,9.44
2023-03-26T18:29:31.058Z,9.48
2023-03-26T18:32:02.461Z,9.48
2023-03-26T18:34:36.287Z,9.49
2023-03-26T18:37:16.100Z,9.38
2023-03-26T18:39:59.467Z,9.39
2023-03-26T18:42:31.765Z,9.33
2023-03-26T18:45:06.296Z,9.36
2023-03-26T18:47:38.115Z,9.28
2023-03-26T18:50:08.168Z,9.31
2023-03-26T18:52:36.777Z,9.30
2023-03-26T18:55:07.659Z,9.26
2023-03-26T18:57:36.388Z,9.28
2023-03-26T19:00:20.227Z,9.24
2023-03-26T19:02:51.172Z,9.24
2023-03-26T19:05:20.614Z,9.22
2023-03-26T19:07:49.492Z,9.23
2023-03-26T19:10:21.751Z,9.17
2023-03-26T19:12:57.883Z,9.12
2023-03-26T19:15:28.674Z,9.08
2023-03-26T19:18:03.295Z,9.06
2023-03-26T19:20:38.052Z,9.06
2023-03-26T19:23:08.466Z,9.06
2023-03-26T19:25:45.573Z,9.03
2023-03-26T19:28:20.237Z,9.01
2023-03-26T19:30:53.922Z,9.01
2023-03-26T19:33:23.936Z,8.98
2023-03-26T19:36:04.326Z,8.97
2023-03-26T19:38:40.822Z,8.89
2023-03-26T19:41:22.591Z,8.85
2023-03-26T19:43:52.117Z,8.85
2023-03-26T19:46:25.845Z,8.78
2023-03-26T19:48:55.746Z,8.75
2023-03-26T19:51:28.759Z,8.70
2023-03-26T19:54:00.707Z,8.76
2023-03-26T19:56:33.859Z,8.76
2023-03-26T19:59:02.589Z,8.75
2023-03-26T20:01:32.109Z,8.65
2023-03-26T20:04:05.821Z,8.59
2023-03-26T20:06:43.302Z,8.51
2023-03-26T20:09:13.643Z,8.42
2023-03-26T20:11:46.046Z,8.36
2023-03-26T20:14:16.963Z,8.30
2023-03-26T20:16:46.172Z,8.14
2023-03-26T20:19:18.763Z,8.06
2023-03-26T20:21:47.470Z,8.03
2023-03-26T20:24:18.482Z,7.87
2023-03-26T20:26:52.041Z,7.82
2023-03-26T20:29:23.369Z,7.74
2023-03-26T20:31:52.339Z,7.63
2023-03-26T20:34:23.635Z,7.64
2023-03-26T20:36:54.906Z,7.51
2023-03-26T20:39:24.854Z,7.56
2023-03-26T20:41:57.384Z,7.52
2023-03-26T20:44:26.934Z,7.38
2023-03-26T20:46:55.890Z,7.43
2023-03-26T20:49:24.881Z,7.31
2023-03-26T20:51:53.696Z,7.13
2023-03-26T20:54:24.652Z,7.13
2023-03-26T20:56:55.762Z,7.08
2023-03-26T20:59:27.926Z,6.97
2023-03-26T21:01:58.647Z,6.94
2023-03-26T21:04:27.736Z,6.95
2023-03-26T21:07:06.997Z,6.91
2023-03-26T21:09:36.985Z,6.86
2023-03-26T21:12:10.805Z,6.84
2023-03-26T21:14:43.364Z,6.78
2023-03-26T21:17:16.282Z,6.71
2023-03-26T21:19:46.044Z,6.75
2023-03-26T21:22:25.191Z,6.71
2023-03-26T21:25:09.837Z,6.66
2023-03-26T21:27:49.534Z,6.68
2023-03-26T21:30:18.924Z,6.66
2023-03-26T21:32:48.697Z,6.57
2023-03-26T21:35:18.252Z,6.53
2023-03-26T21:37:48.429Z,6.53
2023-03-26T21:40:18.886Z,6.45
2023-03-26T21:42:52.087Z,6.46
2023-03-26T21:45:22.353Z,6.42
2023-03-26T21:47:51.712Z,6.40
2023-03-26T21:50:23.225Z,6.38
2023-03-26T21:52:53.246Z,6.39
2023-03-26T21:55:23.447Z,6.31
2023-03-26T21:58:21.941Z,6.28
2023-03-26T22:01:11.291Z,6.25
2023-03-26T22:03:53.680Z,6.21
2023-03-26T22:06:27.430Z,6.24
2023-03-26T22:08:56.285Z,6.25
2023-03-26T22:11:24.959Z,6.22
2023-03-26T22:13:56.337Z,6.22
2023-03-26T22:16:25.838Z,6.26
2023-03-26T22:18:54.658Z,6.20
2023-03-26T22:21:23.187Z,6.18
2023-03-26T22:23:54.155Z,6.17
2023-03-26T22:26:24.585Z,6.19
2023-03-26T22:28:54.964Z,6.23
2023-03-26T22:31:24.243Z,6.18
2023-03-26T22:33:52.593Z,6.21
2023-03-26T22:36:22.949Z,6.14
2023-03-26T22:38:54.800Z,6.17
2023-03-26T22:41:23.875Z,6.21
2023-03-26T22:43:53.107Z,6.24
2023-03-26T22:46:24.263Z,6.20
2023-03-26T22:48:54.227Z,6.26
2023-03-26T22:51:22.564Z,6.22
2023-03-26T22:53:51.548Z,6.15
2023-03-26T22:56:19.926Z,6.12
2023-03-26T22:58:49.021Z,6.19
2023-03-26T23:01:20.801Z,6.18
2023-03-26T23:03:51.509Z,6.19
2023-03-26T23:06:20.683Z,6.16
2023-03-26T23:08:49.846Z,6.14
2023-03-26T23:11:21.426Z,6.16
2023-03-26T23:13:50.668Z,6.19
2023-03-26T23:16:20.865Z,6.14
2023-03-26T23:18:51.258Z,6.12
2023-03-26T23:21:21.882Z,6.06
2023-03-26T23:23:51.543Z,6.07
2023-03-26T23:26:19.869Z,6.05
2023-03-26T23:28:48.303Z,5.94
2023-03-26T23:31:16.671Z,5.87
2023-03-26T23:33:47.202Z,5.84
2023-03-26T23:36:19.486Z,5.83
2023-03-26T23:38:49.360Z,5.70
2023-03-26T23:41:20.844Z,5.77
2023-03-26T23:43:54.828Z,5.75
2023-03-26T23:46:24.812Z,5.82
2023-03-26T23:48:54.545Z,5.77
2023-03-26T23:51:24.749Z,5.70
2023-03-26T23:53:53.400Z,5.63
2023-03-26T23:56:22.236Z,5.59
2023-03-26T23:58:50.885Z,5.60
